Time;durP1;ratioP1;P1;durP2;ratioP2;P2;SDS_P1;SDS_P2;PMS_P1;PMS_P2;Temp;Humidity;BMP_temperature;BMP_pressure;BME280_temperature;BME280_humidity;BME280_pressure;Samples;Min_cycle;Max_cycle;Signal;HPM_P1;HPM_P2
2021/12/13 00:02:15;;;;;;;0.00;0.00;;;;;;;;;;6272121;22;19991;-59
2021/12/13 00:04:40;;;;;;;;;;;;;;;;;;6272542;22;20086;-59
2021/12/13 00:07:24;;;;;;;0.00;0.00;;;;;;;;;;6271716;22;20342;-59
2021/12/13 00:09:50;;;;;;;0.00;0.00;;;;;;;;;;6271912;22;20000;-59
2021/12/13 00:12:25;;;;;;;0.00;0.00;;;;;;;;;;6271618;22;20425;-59
2021/12/13 00:14:51;;;;;;;0.00;0.00;;;;;;;;;;6272035;22;19996;-59
2021/12/13 00:17:16;;;;;;;0.00;0.00;;;;;;;;;;6271359;22;20007;-60
2021/12/13 00:19:43;;;;;;;0.00;0.00;;;;;;;;;;6272397;22;20118;-60
2021/12/13 00:22:15;;;;;;;0.00;0.00;;;;;;;;;;6271807;22;20218;-59
2021/12/13 00:24:42;;;;;;;0.00;0.00;;;;;;;;;;6272783;22;20237;-59
2021/12/13 00:27:15;;;;;;;0.00;0.00;;;;;;;;;;6244635;22;20487;-60
2021/12/13 00:29:44;;;;;;;0.00;0.00;;;;;;;;;;6272142;22;20791;-59
2021/12/13 00:32:22;;;;;;;6.40;3.20;;;;;;;;;;6271820;22;20006;-59
2021/12/13 00:34:53;;;;;;;0.00;0.00;;;;;;;;;;6272779;22;20011;-59
2021/12/13 00:37:29;;;;;;;0.00;0.00;;;;;;;;;;6271621;22;20461;-60
2021/12/13 00:40:15;;;;;;;0.00;0.00;;;;;;;;;;6272015;22;20012;-59
2021/12/13 00:42:43;;;;;;;0.00;0.00;;;;;;;;;;6270370;22;20079;-59
2021/12/13 00:45:10;;;;;;;0.00;0.00;;;;;;;;;;6271418;22;19996;-59
2021/12/13 00:47:37;;;;;;;0.10;0.10;;;;;;;;;;6272342;22;20095;-59
2021/12/13 00:50:11;;;;;;;0.00;0.00;;;;;;;;;;6272311;22;20079;-59
2021/12/13 00:52:37;;;;;;;0.10;0.10;;;;;;;;;;6272113;22;20003;-59
2021/12/13 00:55:13;;;;;;;0.60;0.60;;;;;;;;;;6272239;22;19992;-59
2021/12/13 00:57:41;;;;;;;0.00;0.00;;;;;;;;;;6273302;22;20079;-60
2021/12/13 01:00:06;;;;;;;0.22;0.22;;;;;;;;;;6245106;22;20436;-59
2021/12/13 01:02:38;;;;;;;0.00;0.00;;;;;;;;;;6247086;22;20197;-59
2021/12/13 01:05:06;;;;;;;0.00;0.00;;;;;;;;;;6274112;22;20380;-60
2021/12/13 01:07:40;;;;;;;0.00;0.00;;;;;;;;;;6274078;22;20010;-60
2021/12/13 01:10:14;;;;;;;0.00;0.00;;;;;;;;;;6273726;22;20003;-59
2021/12/13 01:12:41;;;;;;;0.00;0.00;;;;;;;;;;6274278;22;20011;-59
2021/12/13 01:15:16;;;;;;;0.45;0.45;;;;;;;;;;6273433;22;20054;-59
2021/12/13 01:17:59;;;;;;;0.00;0.00;;;;;;;;;;6273862;22;20003;-59
2021/12/13 01:20:28;;;;;;;0.30;0.30;;;;;;;;;;6273518;22;19999;-59
2021/12/13 01:23:02;;;;;;;0.00;0.00;;;;;;;;;;6246313;22;20577;-59
2021/12/13 01:25:46;;;;;;;0.00;0.00;;;;;;;;;;6273121;22;20041;-59
2021/12/13 01:28:18;;;;;;;0.52;0.52;;;;;;;;;;6273500;22;20026;-59
2021/12/13 01:30:48;;;;;;;0.00;0.00;;;;;;;;;;6273927;22;20291;-60
2021/12/13 01:33:14;;;;;;;0.00;0.00;;;;;;;;;;6246151;22;20014;-60
2021/12/13 01:35:42;;;;;;;0.00;0.00;;;;;;;;;;6274253;22;20008;-59
2021/12/13 01:38:09;;;;;;;0.00;0.00;;;;;;;;;;6272726;22;20002;-59
2021/12/13 01:40:37;;;;;;;0.00;0.00;;;;;;;;;;6273606;22;20026;-59
2021/12/13 01:43:06;;;;;;;0.00;0.00;;;;;;;;;;6274026;22;20003;-59
2021/12/13 01:45:32;;;;;;;0.00;0.00;;;;;;;;;;6273309;22;19991;-59
2021/12/13 01:47:59;;;;;;;0.00;0.00;;;;;;;;;;6274265;22;20025;-60
2021/12/13 01:50:31;;;;;;;0.00;0.00;;;;;;;;;;6272948;22;20019;-60
2021/12/13 01:53:00;;;;;;;2.50;1.95;;;;;;;;;;6273737;22;19999;-60
2021/12/13 01:55:25;;;;;;;;;;;;;;;;;;6273548;22;20000;-59
2021/12/13 01:58:07;;;;;;;0.00;0.00;;;;;;;;;;6273993;22;20213;-60
2021/12/13 02:01:08;;;;;;;2.13;2.13;;;;;;;;;;6273720;22;20018;-60
2021/12/13 02:03:38;;;;;;;0.00;0.00;;;;;;;;;;6272748;22;20429;-59
2021/12/13 02:06:03;;;;;;;0.03;0.03;;;;;;;;;;6272782;22;20023;-59
2021/12/13 02:08:29;;;;;;;0.00;0.00;;;;;;;;;;6272580;22;20429;-59
2021/12/13 02:10:55;;;;;;;0.00;0.00;;;;;;;;;;6246506;22;20063;-59
2021/12/13 02:13:27;;;;;;;0.00;0.00;;;;;;;;;;6273038;22;20370;-59
2021/12/13 02:18:41;;;;;;;0.00;0.00;;;;;;;;;;6273097;22;20094;-59
2021/12/13 02:21:18;;;;;;;0.00;0.00;;;;;;;;;;6273269;22;20444;-59
2021/12/13 02:23:46;;;;;;;0.00;0.00;;;;;;;;;;6273469;22;19996;-59
2021/12/13 02:26:11;;;;;;;0.00;0.00;;;;;;;;;;6273097;22;20827;-60
2021/12/13 02:28:38;;;;;;;0.00;0.00;;;;;;;;;;6273357;22;20039;-60
2021/12/13 02:31:06;;;;;;;0.00;0.00;;;;;;;;;;6273436;22;20015;-60
2021/12/13 02:33:33;;;;;;;0.00;0.00;;;;;;;;;;6273124;22;20027;-60
2021/12/13 02:36:01;;;;;;;1.17;1.17;;;;;;;;;;6272879;22;20426;-60
2021/12/13 02:38:26;;;;;;;0.00;0.00;;;;;;;;;;6272588;22;20321;-60
2021/12/13 02:40:52;;;;;;;0.00;0.00;;;;;;;;;;6273774;22;20011;-60
2021/12/13 02:43:19;;;;;;;1.23;1.17;;;;;;;;;;6272517;22;19992;-61
2021/12/13 02:45:47;;;;;;;0.00;0.00;;;;;;;;;;6272749;22;20298;-59
2021/12/13 02:48:16;;;;;;;0.00;0.00;;;;;;;;;;6273207;22;20002;-60
2021/12/13 02:50:41;;;;;;;0.00;0.00;;;;;;;;;;6273134;22;20003;-60
2021/12/13 02:53:08;;;;;;;0.00;0.00;;;;;;;;;;6273707;22;20325;-60
2021/12/13 02:55:33;;;;;;;0.00;0.00;;;;;;;;;;6272931;22;20007;-60
2021/12/13 02:58:00;;;;;;;0.00;0.00;;;;;;;;;;6272655;22;20457;-60
2021/12/13 03:00:28;;;;;;;0.08;0.08;;;;;;;;;;6272687;22;20106;-60
2021/12/13 03:02:55;;;;;;;0.20;0.20;;;;;;;;;;6245620;22;19992;-60
2021/12/13 03:05:28;;;;;;;0.00;0.00;;;;;;;;;;6272289;22;19999;-60
2021/12/13 03:07:55;;;;;;;0.10;0.10;;;;;;;;;;6273203;22;19999;-60
2021/12/13 03:10:23;;;;;;;0.00;0.00;;;;;;;;;;6272007;22;20018;-60
2021/12/13 03:12:48;;;;;;;0.00;0.00;;;;;;;;;;6273220;22;20318;-60
2021/12/13 03:15:15;;;;;;;0.00;0.00;;;;;;;;;;6272503;22;20008;-60
2021/12/13 03:17:43;;;;;;;0.00;0.00;;;;;;;;;;6272977;22;20022;-60
2021/12/13 03:20:14;;;;;;;0.00;0.00;;;;;;;;;;6272577;22;20007;-60
2021/12/13 03:22:58;;;;;;;0.10;0.10;;;;;;;;;;6272863;22;20006;-60
2021/12/13 03:25:46;;;;;;;0.00;0.00;;;;;;;;;;6244543;22;20003;-59
2021/12/13 03:28:31;;;;;;;0.00;0.00;;;;;;;;;;6252563;22;20007;-60
2021/12/13 03:31:09;;;;;;;0.00;0.00;;;;;;;;;;6273050;22;19995;-59
2021/12/13 03:33:43;;;;;;;0.00;0.00;;;;;;;;;;6272209;22;20078;-59
2021/12/13 03:36:10;;;;;;;0.00;0.00;;;;;;;;;;6272926;22;19996;-60
2021/12/13 03:38:41;;;;;;;0.15;0.15;;;;;;;;;;6271092;22;20437;-60
2021/12/13 03:41:11;;;;;;;0.00;0.00;;;;;;;;;;6273219;22;20073;-60
2021/12/13 03:43:39;;;;;;;0.00;0.00;;;;;;;;;;6272309;22;20006;-60
2021/12/13 03:46:06;;;;;;;0.00;0.00;;;;;;;;;;6272339;22;20006;-60
2021/12/13 03:48:32;;;;;;;0.00;0.00;;;;;;;;;;6272090;22;20413;-61
2021/12/13 03:51:00;;;;;;;0.08;0.08;;;;;;;;;;6272385;22;20004;-60
2021/12/13 03:53:27;;;;;;;0.00;0.00;;;;;;;;;;6272113;22;20003;-61
2021/12/13 03:55:56;;;;;;;0.00;0.00;;;;;;;;;;6272872;22;20003;-60
2021/12/13 03:58:22;;;;;;;0.00;0.00;;;;;;;;;;6271991;22;19996;-60
2021/12/13 04:00:50;;;;;;;0.00;0.00;;;;;;;;;;6244897;22;19995;-60
2021/12/13 04:03:17;;;;;;;0.00;0.00;;;;;;;;;;6272132;22;19995;-60
2021/12/13 04:05:42;;;;;;;0.00;0.00;;;;;;;;;;6272485;22;20083;-60
2021/12/13 04:08:09;;;;;;;0.00;0.00;;;;;;;;;;6272524;22;20366;-60
2021/12/13 04:10:37;;;;;;;0.00;0.00;;;;;;;;;;6271664;22;20546;-60
2021/12/13 04:13:10;;;;;;;0.00;0.00;;;;;;;;;;6272697;22;20333;-59
2021/12/13 04:15:51;;;;;;;0.00;0.00;;;;;;;;;;6272187;22;20003;-61
2021/12/13 04:18:40;;;;;;;0.00;0.00;;;;;;;;;;6271370;22;20334;-60
2021/12/13 04:21:05;;;;;;;0.00;0.00;;;;;;;;;;6272573;22;19992;-61
2021/12/13 04:23:31;;;;;;;0.00;0.00;;;;;;;;;;6272060;22;20003;-61
2021/12/13 04:25:58;;;;;;;0.00;0.00;;;;;;;;;;6245362;22;19999;-60
2021/12/13 04:28:26;;;;;;;0.00;0.00;;;;;;;;;;6271887;22;20007;-61
2021/12/13 04:30:53;;;;;;;0.00;0.00;;;;;;;;;;6271966;22;20007;-61
2021/12/13 04:33:21;;;;;;;0.00;0.00;;;;;;;;;;6243926;22;20023;-60
2021/12/13 04:35:48;;;;;;;0.00;0.00;;;;;;;;;;6272302;22;20006;-61
2021/12/13 04:38:16;;;;;;;0.00;0.00;;;;;;;;;;6272109;22;19992;-61
2021/12/13 04:40:42;;;;;;;0.00;0.00;;;;;;;;;;6272429;22;20425;-60
2021/12/13 04:43:10;;;;;;;0.00;0.00;;;;;;;;;;6272262;22;20000;-61
2021/12/13 04:45:38;;;;;;;0.00;0.00;;;;;;;;;;6271727;22;20069;-61
2021/12/13 04:48:04;;;;;;;0.00;0.00;;;;;;;;;;6272068;22;20004;-61
2021/12/13 04:50:34;;;;;;;0.10;0.10;;;;;;;;;;6271768;22;20034;-61
2021/12/13 04:53:00;;;;;;;0.00;0.00;;;;;;;;;;6272291;22;20062;-61
2021/12/13 04:55:30;;;;;;;0.00;0.00;;;;;;;;;;6271647;22;19998;-61
2021/12/13 04:57:57;;;;;;;0.00;0.00;;;;;;;;;;6272247;22;20002;-61
2021/12/13 05:00:24;;;;;;;0.00;0.00;;;;;;;;;;6271125;22;19996;-61
2021/12/13 05:02:51;;;;;;;0.00;0.00;;;;;;;;;;6272081;22;20141;-60
2021/12/13 05:05:17;;;;;;;0.00;0.00;;;;;;;;;;6272165;22;20023;-61
2021/12/13 05:07:43;;;;;;;0.00;0.00;;;;;;;;;;6271853;22;20045;-60
2021/12/13 05:10:09;;;;;;;0.00;0.00;;;;;;;;;;6271600;22;20028;-60
2021/12/13 05:12:35;;;;;;;1.55;1.45;;;;;;;;;;6271414;22;20010;-60
2021/12/13 05:15:03;;;;;;;0.00;0.00;;;;;;;;;;6271823;22;19999;-60
2021/12/13 05:17:46;;;;;;;0.00;0.00;;;;;;;;;;6271200;22;19996;-60
2021/12/13 05:20:11;;;;;;;0.00;0.00;;;;;;;;;;6272470;22;20446;-61
2021/12/13 05:22:52;;;;;;;0.00;0.00;;;;;;;;;;6271577;22;19995;-60
2021/12/13 05:25:29;;;;;;;0.00;0.00;;;;;;;;;;6271521;22;19995;-60
2021/12/13 05:28:04;;;;;;;0.00;0.00;;;;;;;;;;6271668;22;20008;-60
2021/12/13 05:30:32;;;;;;;0.00;0.00;;;;;;;;;;6271979;22;20014;-60
2021/12/13 05:32:59;;;;;;;1.08;1.08;;;;;;;;;;6272139;22;20007;-61
2021/12/13 05:35:32;;;;;;;0.00;0.00;;;;;;;;;;6271531;22;20026;-60
2021/12/13 05:38:00;;;;;;;0.00;0.00;;;;;;;;;;6271930;22;20000;-61
2021/12/13 05:40:43;;;;;;;0.00;0.00;;;;;;;;;;6270360;22;20026;-60
2021/12/13 05:43:18;;;;;;;1.75;1.23;;;;;;;;;;6271869;22;20283;-60
2021/12/13 05:45:45;;;;;;;0.00;0.00;;;;;;;;;;6272558;22;20023;-61
2021/12/13 05:48:12;;;;;;;0.00;0.00;;;;;;;;;;6273794;22;20079;-60
2021/12/13 05:50:40;;;;;;;0.00;0.00;;;;;;;;;;6273267;22;20027;-60
2021/12/13 05:53:08;;;;;;;0.00;0.00;;;;;;;;;;6273761;22;19996;-60
2021/12/13 05:55:44;;;;;;;0.00;0.00;;;;;;;;;;6272289;22;20000;-60
2021/12/13 05:58:09;;;;;;;0.00;0.00;;;;;;;;;;6272641;22;20000;-60
2021/12/13 06:00:35;;;;;;;0.00;0.00;;;;;;;;;;6272513;22;19995;-61
2021/12/13 06:03:03;;;;;;;0.65;0.65;;;;;;;;;;6273302;22;20004;-62
2021/12/13 06:05:32;;;;;;;0.00;0.00;;;;;;;;;;6272427;22;19998;-61
2021/12/13 06:08:09;;;;;;;0.00;0.00;;;;;;;;;;6273644;22;20022;-60
2021/12/13 06:10:57;;;;;;;0.82;0.82;;;;;;;;;;6272856;22;20065;-60
2021/12/13 06:13:39;;;;;;;0.00;0.00;;;;;;;;;;6272301;22;20083;-61
2021/12/13 06:16:05;;;;;;;0.00;0.00;;;;;;;;;;6273469;22;20083;-61
2021/12/13 06:18:32;;;;;;;0.00;0.00;;;;;;;;;;6272883;22;20015;-60
2021/12/13 06:21:23;;;;;;;0.00;0.00;;;;;;;;;;6273800;22;20000;-61
2021/12/13 06:23:49;;;;;;;0.00;0.00;;;;;;;;;;6273401;22;20557;-61
2021/12/13 06:26:14;;;;;;;0.00;0.00;;;;;;;;;;6272656;22;19996;-60
2021/12/13 06:28:44;;;;;;;0.00;0.00;;;;;;;;;;6272855;22;20030;-60
2021/12/13 06:31:20;;;;;;;0.00;0.00;;;;;;;;;;6273511;22;20062;-60
2021/12/13 06:33:56;;;;;;;0.00;0.00;;;;;;;;;;6272670;22;20003;-60
2021/12/13 06:36:26;;;;;;;0.00;0.00;;;;;;;;;;6273815;22;20069;-61
2021/12/13 06:38:53;;;;;;;0.00;0.00;;;;;;;;;;6245580;22;20015;-60
2021/12/13 06:41:20;;;;;;;0.00;0.00;;;;;;;;;;6273277;22;20483;-59
2021/12/13 06:43:48;;;;;;;0.80;0.80;;;;;;;;;;6245444;22;19996;-60
2021/12/13 06:46:23;;;;;;;0.00;0.00;;;;;;;;;;6272978;22;19996;-60
2021/12/13 06:48:50;;;;;;;0.00;0.00;;;;;;;;;;6272462;22;20006;-60
2021/12/13 06:51:16;;;;;;;0.00;0.00;;;;;;;;;;6273239;22;19996;-60
2021/12/13 06:53:59;;;;;;;0.00;0.00;;;;;;;;;;6272035;22;20003;-60
2021/12/13 06:56:26;;;;;;;0.00;0.00;;;;;;;;;;6272310;22;20101;-60
2021/12/13 06:58:53;;;;;;;0.00;0.00;;;;;;;;;;6273103;22;20467;-60
2021/12/13 07:01:18;;;;;;;0.00;0.00;;;;;;;;;;6245385;22;20023;-59
2021/12/13 07:03:52;;;;;;;0.00;0.00;;;;;;;;;;6271987;22;20053;-59
2021/12/13 07:06:18;;;;;;;0.00;0.00;;;;;;;;;;6273404;22;20000;-60
2021/12/13 07:08:43;;;;;;;0.00;0.00;;;;;;;;;;6272621;22;20019;-60
2021/12/13 07:11:15;;;;;;;0.00;0.00;;;;;;;;;;6273073;22;20000;-60
2021/12/13 07:14:01;;;;;;;0.00;0.00;;;;;;;;;;6272235;22;20033;-60
2021/12/13 07:16:32;;;;;;;0.00;0.00;;;;;;;;;;6271378;22;20031;-59
2021/12/13 07:19:00;;;;;;;0.00;0.00;;;;;;;;;;6272443;22;20306;-59
2021/12/13 07:21:28;;;;;;;0.00;0.00;;;;;;;;;;6272513;22;20478;-60
2021/12/13 07:23:56;;;;;;;0.00;0.00;;;;;;;;;;6272179;22;19995;-59
2021/12/13 07:26:35;;;;;;;0.00;0.00;;;;;;;;;;6273448;22;20000;-59
2021/12/13 07:29:00;;;;;;;;;;;;;;;;;;6273629;22;20320;-60
2021/12/13 07:31:26;;;;;;;0.00;0.00;;;;;;;;;;6272513;22;19934;-60
2021/12/13 07:33:51;;;;;;;0.00;0.00;;;;;;;;;;6272647;22;20000;-60
2021/12/13 07:36:19;;;;;;;0.00;0.00;;;;;;;;;;6272849;22;20038;-59
2021/12/13 07:39:07;;;;;;;0.00;0.00;;;;;;;;;;6271876;22;20030;-61
2021/12/13 07:41:53;;;;;;;0.00;0.00;;;;;;;;;;6271768;22;20007;-61
2021/12/13 07:44:32;;;;;;;0.00;0.00;;;;;;;;;;6272461;22;20000;-61
2021/12/13 07:47:17;;;;;;;0.00;0.00;;;;;;;;;;6272685;22;20362;-60
2021/12/13 07:49:45;;;;;;;0.00;0.00;;;;;;;;;;6270595;22;20398;-60
2021/12/13 07:52:23;;;;;;;0.00;0.00;;;;;;;;;;6272194;22;19996;-60
2021/12/13 07:54:48;;;;;;;0.00;0.00;;;;;;;;;;6271901;22;20030;-59
2021/12/13 07:57:18;;;;;;;0.00;0.00;;;;;;;;;;6272406;22;20425;-59
2021/12/13 07:59:44;;;;;;;0.00;0.00;;;;;;;;;;6270416;22;20000;-60
2021/12/13 08:02:31;;;;;;;0.00;0.00;;;;;;;;;;6272765;22;20004;-60
2021/12/13 08:04:56;;;;;;;0.00;0.00;;;;;;;;;;6272641;22;19992;-59
2021/12/13 08:07:26;;;;;;;0.00;0.00;;;;;;;;;;6271753;22;19999;-60
2021/12/13 08:09:52;;;;;;;0.00;0.00;;;;;;;;;;6270989;22;20425;-59
2021/12/13 08:12:19;;;;;;;0.00;0.00;;;;;;;;;;6271790;22;20007;-59
2021/12/13 08:14:46;;;;;;;0.00;0.00;;;;;;;;;;6270378;22;20105;-60
2021/12/13 08:17:13;;;;;;;0.00;0.00;;;;;;;;;;6271856;22;20448;-59
2021/12/13 08:19:39;;;;;;;0.00;0.00;;;;;;;;;;6270745;22;20082;-60
2021/12/13 08:22:10;;;;;;;0.00;0.00;;;;;;;;;;6271146;22;20031;-61
2021/12/13 08:24:40;;;;;;;1.25;1.25;;;;;;;;;;6271629;22;19992;-61
2021/12/13 08:27:06;;;;;;;0.00;0.00;;;;;;;;;;6271909;22;19996;-60
2021/12/13 08:29:33;;;;;;;0.00;0.00;;;;;;;;;;6271680;22;20000;-60
2021/12/13 08:32:07;;;;;;;0.10;0.10;;;;;;;;;;6272234;22;19996;-59
2021/12/13 08:34:36;;;;;;;15.20;14.13;;;;;;;;;;6271163;22;20079;-61
2021/12/13 08:37:11;;;;;;;0.00;0.00;;;;;;;;;;6271901;22;19999;-60
2021/12/13 08:39:37;;;;;;;0.00;0.00;;;;;;;;;;6271556;22;20016;-60
2021/12/13 08:42:13;;;;;;;0.00;0.00;;;;;;;;;;6272507;22;20433;-60
2021/12/13 08:44:41;;;;;;;0.00;0.00;;;;;;;;;;6271048;22;20075;-60
2021/12/13 08:47:13;;;;;;;0.10;0.10;;;;;;;;;;6272136;22;20000;-60
2021/12/13 08:49:44;;;;;;;1.00;1.00;;;;;;;;;;6271094;22;20000;-60
2021/12/13 08:52:09;;;;;;;0.00;0.00;;;;;;;;;;6272194;22;20328;-59
2021/12/13 08:54:53;;;;;;;0.00;0.00;;;;;;;;;;6243827;22;20003;-60
2021/12/13 08:57:27;;;;;;;0.00;0.00;;;;;;;;;;6272317;22;20027;-60
2021/12/13 08:59:53;;;;;;;0.00;0.00;;;;;;;;;;6271749;22;20000;-60
2021/12/13 09:02:19;;;;;;;19.95;19.10;;;;;;;;;;6272014;22;19995;-61
2021/12/13 09:04:56;;;;;;;0.00;0.00;;;;;;;;;;6270755;22;19999;-59
2021/12/13 09:07:23;;;;;;;0.00;0.00;;;;;;;;;;6272259;22;19998;-58
2021/12/13 09:09:49;;;;;;;4.05;3.90;;;;;;;;;;6271509;22;19999;-60
2021/12/13 09:12:24;;;;;;;0.00;0.00;;;;;;;;;;6272094;22;20375;-60
2021/12/13 09:14:51;;;;;;;0.00;0.00;;;;;;;;;;6244876;22;20311;-59
2021/12/13 09:17:22;;;;;;;0.00;0.00;;;;;;;;;;6271913;22;19992;-59
2021/12/13 09:19:47;;;;;;;0.00;0.00;;;;;;;;;;6272988;22;20008;-59
2021/12/13 09:22:12;;;;;;;0.00;0.00;;;;;;;;;;6274159;22;20429;-59
2021/12/13 09:24:37;;;;;;;0.00;0.00;;;;;;;;;;6273501;22;19992;-59
2021/12/13 09:27:08;;;;;;;0.00;0.00;;;;;;;;;;6273761;22;20049;-60
2021/12/13 09:29:45;;;;;;;0.00;0.00;;;;;;;;;;6246677;22;20082;-60
2021/12/13 09:32:11;;;;;;;0.00;0.00;;;;;;;;;;6274081;22;20008;-59
2021/12/13 09:34:37;;;;;;;0.00;0.00;;;;;;;;;;6273419;22;20086;-59
2021/12/13 09:37:05;;;;;;;0.00;0.00;;;;;;;;;;6273434;22;20388;-60
2021/12/13 09:39:30;;;;;;;0.00;0.00;;;;;;;;;;6273493;22;20294;-60
2021/12/13 09:41:58;;;;;;;0.00;0.00;;;;;;;;;;6273349;22;20022;-59
2021/12/13 09:44:31;;;;;;;0.00;0.00;;;;;;;;;;6272635;22;19991;-59
2021/12/13 09:46:56;;;;;;;0.00;0.00;;;;;;;;;;6271425;22;19991;-59
2021/12/13 09:49:28;;;;;;;0.00;0.00;;;;;;;;;;6272257;22;20010;-59
2021/12/13 09:52:03;;;;;;;0.00;0.00;;;;;;;;;;6245154;22;20029;-59
2021/12/13 09:54:31;;;;;;;0.00;0.00;;;;;;;;;;6272692;22;19999;-58
2021/12/13 09:57:00;;;;;;;0.00;0.00;;;;;;;;;;6272112;22;19995;-60
2021/12/13 09:59:27;;;;;;;0.35;0.17;;;;;;;;;;6271849;22;20090;-60
2021/12/13 10:01:54;;;;;;;0.00;0.00;;;;;;;;;;6272261;22;20394;-60
2021/12/13 10:04:28;;;;;;;0.10;0.10;;;;;;;;;;6272142;22;20061;-60
2021/12/13 10:06:56;;;;;;;0.35;0.35;;;;;;;;;;6271901;22;20031;-60
2021/12/13 10:09:24;;;;;;;0.60;0.60;;;;;;;;;;6271671;22;20010;-60
2021/12/13 10:11:55;;;;;;;0.00;0.00;;;;;;;;;;6271639;22;20018;-59
2021/12/13 10:14:24;;;;;;;0.00;0.00;;;;;;;;;;6272315;22;20047;-59
2021/12/13 10:16:49;;;;;;;;;;;;;;;;;;6244251;22;20044;-60
2021/12/13 10:19:23;;;;;;;0.00;0.00;;;;;;;;;;6271715;22;19907;-60
2021/12/13 10:21:49;;;;;;;0.00;0.00;;;;;;;;;;6271973;22;20210;-61
2021/12/13 10:24:20;;;;;;;0.00;0.00;;;;;;;;;;6272301;22;20000;-59
2021/12/13 10:26:45;;;;;;;0.28;0.28;;;;;;;;;;6271590;22;20354;-60
2021/12/13 10:29:12;;;;;;;0.00;0.00;;;;;;;;;;6272126;22;20030;-61
2021/12/13 10:31:45;;;;;;;0.00;0.00;;;;;;;;;;6244702;22;20086;-60
2021/12/13 10:34:12;;;;;;;0.00;0.00;;;;;;;;;;6273040;22;20151;-61
2021/12/13 10:36:39;;;;;;;0.00;0.00;;;;;;;;;;6271897;22;20433;-61
2021/12/13 10:39:07;;;;;;;0.30;0.30;;;;;;;;;;6272153;22;20015;-61
2021/12/13 10:41:35;;;;;;;0.00;0.00;;;;;;;;;;6272225;22;20034;-62
2021/12/13 10:44:05;;;;;;;0.00;0.00;;;;;;;;;;6272485;22;20004;-61
2021/12/13 10:46:38;;;;;;;0.85;0.85;;;;;;;;;;6273164;22;20369;-61
2021/12/13 10:49:10;;;;;;;0.00;0.00;;;;;;;;;;6270074;22;20417;-62
2021/12/13 10:51:37;;;;;;;0.00;0.00;;;;;;;;;;6244201;22;19996;-60
2021/12/13 10:54:07;;;;;;;0.00;0.00;;;;;;;;;;6272104;22;20061;-59
2021/12/13 10:56:34;;;;;;;0.00;0.00;;;;;;;;;;6272917;22;20090;-59
2021/12/13 10:59:01;;;;;;;8.65;5.47;;;;;;;;;;6272902;22;20489;-61
2021/12/13 11:01:38;;;;;;;0.10;0.10;;;;;;;;;;6271412;22;20003;-61
2021/12/13 11:04:06;;;;;;;0.00;0.00;;;;;;;;;;6272891;22;20057;-61
2021/12/13 11:06:33;;;;;;;0.00;0.00;;;;;;;;;;6272810;22;20066;-61
2021/12/13 11:08:59;;;;;;;1.02;1.02;;;;;;;;;;6272226;22;20373;-61
2021/12/13 11:11:27;;;;;;;0.00;0.00;;;;;;;;;;6272535;22;20011;-60
2021/12/13 11:13:54;;;;;;;0.00;0.00;;;;;;;;;;6270901;22;20004;-60
2021/12/13 11:16:26;;;;;;;0.00;0.00;;;;;;;;;;6272751;22;20393;-60
2021/12/13 11:18:52;;;;;;;0.00;0.00;;;;;;;;;;6271788;22;20042;-60
2021/12/13 11:21:20;;;;;;;0.80;0.30;;;;;;;;;;6271689;22;20329;-61
2021/12/13 11:23:45;;;;;;;0.00;0.00;;;;;;;;;;6271486;22;20400;-61
2021/12/13 11:26:13;;;;;;;0.10;0.10;;;;;;;;;;6271718;22;20081;-60
2021/12/13 11:28:40;;;;;;;0.00;0.00;;;;;;;;;;6270135;22;20002;-61
2021/12/13 11:31:09;;;;;;;0.15;0.15;;;;;;;;;;6271735;22;20479;-61
2021/12/13 11:33:37;;;;;;;0.00;0.00;;;;;;;;;;6272689;22;20004;-61
2021/12/13 11:36:21;;;;;;;0.00;0.00;;;;;;;;;;6272572;22;20010;-60
2021/12/13 11:39:24;;;;;;;0.00;0.00;;;;;;;;;;6270625;22;20007;-60
2021/12/13 11:42:08;;;;;;;2.63;2.35;;;;;;;;;;6117975;23;20014;-62
2021/12/13 11:44:44;;;;;;;0.03;0.03;;;;;;;;;;6119124;23;19998;-60
2021/12/13 11:47:27;;;;;;;0.00;0.00;;;;;;;;;;6119198;23;20380;-60
2021/12/13 11:50:11;;;;;;;0.00;0.00;;;;;;;;;;6118019;23;20005;-61
2021/12/13 11:52:55;;;;;;;0.00;0.00;;;;;;;;;;6118355;23;20011;-61
2021/12/13 11:55:39;;;;;;;2.45;0.65;;;;;;;;;;6119446;23;20010;-60
2021/12/13 11:58:24;;;;;;;0.00;0.00;;;;;;;;;;6116216;23;20126;-62
2021/12/13 12:01:16;;;;;;;0.00;0.00;;;;;;;;;;6092114;23;20530;-65
2021/12/13 12:04:01;;;;;;;0.00;0.00;;;;;;;;;;6093698;23;20060;-61
2021/12/13 12:09:51;;;;;;;0.00;0.00;;;;;;;;;;6115833;23;20400;-61
2021/12/13 12:12:33;;;;;;;0.00;0.00;;;;;;;;;;6166545;22;20004;-61
2021/12/13 12:15:09;;;;;;;0.00;0.00;;;;;;;;;;6242771;22;20390;-61
2021/12/13 12:17:35;;;;;;;0.00;0.00;;;;;;;;;;6216513;22;20356;-60
2021/12/13 12:20:00;;;;;;;0.00;0.00;;;;;;;;;;6271723;22;20026;-59
2021/12/13 12:22:48;;;;;;;0.00;0.00;;;;;;;;;;6272077;22;20461;-61
2021/12/13 12:25:14;;;;;;;0.17;0.17;;;;;;;;;;6245184;22;20421;-60
2021/12/13 12:27:40;;;;;;;0.00;0.00;;;;;;;;;;6271845;22;20061;-60
2021/12/13 12:30:07;;;;;;;1.15;1.13;;;;;;;;;;6272103;22;20417;-60
2021/12/13 12:32:34;;;;;;;0.00;0.00;;;;;;;;;;6271362;22;20493;-59
2021/12/13 12:35:03;;;;;;;0.00;0.00;;;;;;;;;;6271785;22;20324;-60
2021/12/13 12:37:30;;;;;;;0.00;0.00;;;;;;;;;;6272498;22;19996;-60
2021/12/13 12:40:05;;;;;;;0.00;0.00;;;;;;;;;;6270962;22;20381;-61
2021/12/13 12:42:33;;;;;;;0.00;0.00;;;;;;;;;;6271718;22;20077;-59
2021/12/13 12:44:58;;;;;;;0.00;0.00;;;;;;;;;;6271969;22;20006;-60
2021/12/13 12:47:43;;;;;;;0.10;0.10;;;;;;;;;;6272112;22;20329;-60
2021/12/13 12:50:14;;;;;;;0.30;0.30;;;;;;;;;;6271967;22;20023;-60
2021/12/13 12:52:47;;;;;;;0.08;0.08;;;;;;;;;;6270584;22;20004;-60
2021/12/13 12:55:14;;;;;;;0.00;0.00;;;;;;;;;;6273103;22;20074;-60
2021/12/13 12:57:39;;;;;;;0.00;0.00;;;;;;;;;;6272898;22;20083;-59
2021/12/13 13:00:04;;;;;;;0.00;0.00;;;;;;;;;;6272471;22;20031;-60
2021/12/13 13:02:31;;;;;;;0.00;0.00;;;;;;;;;;6272788;22;20002;-60
2021/12/13 13:04:58;;;;;;;0.00;0.00;;;;;;;;;;6272803;22;19992;-60
2021/12/13 13:07:28;;;;;;;0.00;0.00;;;;;;;;;;6272566;22;19992;-59
2021/12/13 13:09:55;;;;;;;0.00;0.00;;;;;;;;;;6270718;22;20423;-60
2021/12/13 13:12:25;;;;;;;0.00;0.00;;;;;;;;;;6272909;22;20341;-60
2021/12/13 13:14:52;;;;;;;0.00;0.00;;;;;;;;;;6272514;22;19995;-61
2021/12/13 13:17:21;;;;;;;0.00;0.00;;;;;;;;;;6273217;22;20031;-61
2021/12/13 13:19:47;;;;;;;0.00;0.00;;;;;;;;;;6272334;22;20003;-62
2021/12/13 13:22:21;;;;;;;0.00;0.00;;;;;;;;;;6273247;22;19996;-62
2021/12/13 13:24:51;;;;;;;6.13;5.93;;;;;;;;;;6272970;22;19995;-61
2021/12/13 13:27:18;;;;;;;0.00;0.00;;;;;;;;;;6273091;22;20121;-61
2021/12/13 13:29:43;;;;;;;0.00;0.00;;;;;;;;;;6272345;22;20069;-62
2021/12/13 13:32:12;;;;;;;0.00;0.00;;;;;;;;;;6272676;22;19999;-62
2021/12/13 13:34:40;;;;;;;0.00;0.00;;;;;;;;;;6272626;22;20065;-62
2021/12/13 13:37:05;;;;;;;0.00;0.00;;;;;;;;;;6273141;22;20006;-62
2021/12/13 13:39:34;;;;;;;0.00;0.00;;;;;;;;;;6273014;22;20322;-62
2021/12/13 13:42:02;;;;;;;0.00;0.00;;;;;;;;;;6272918;22;20003;-62
2021/12/13 13:44:27;;;;;;;0.00;0.00;;;;;;;;;;6273767;22;20003;-61
2021/12/13 13:47:06;;;;;;;0.00;0.00;;;;;;;;;;6272595;22;20000;-62
2021/12/13 13:49:31;;;;;;;0.08;0.08;;;;;;;;;;6240523;22;20007;-61
2021/12/13 13:51:56;;;;;;;0.00;0.00;;;;;;;;;;6269799;22;20003;-60
2021/12/13 13:54:27;;;;;;;0.00;0.00;;;;;;;;;;6271385;22;20006;-60
2021/12/13 13:56:52;;;;;;;0.00;0.00;;;;;;;;;;6271928;22;20000;-61
2021/12/13 13:59:20;;;;;;;0.00;0.00;;;;;;;;;;6272763;22;20008;-63
2021/12/13 14:01:48;;;;;;;0.00;0.00;;;;;;;;;;6271527;22;20046;-63
2021/12/13 14:04:19;;;;;;;0.00;0.00;;;;;;;;;;6273025;22;19998;-63
2021/12/13 14:06:50;;;;;;;0.00;0.00;;;;;;;;;;6271898;22;19995;-62
2021/12/13 14:09:18;;;;;;;0.00;0.00;;;;;;;;;;6273457;22;20078;-63
2021/12/13 14:11:48;;;;;;;0.00;0.00;;;;;;;;;;6272597;22;20031;-63
2021/12/13 14:14:13;;;;;;;0.00;0.00;;;;;;;;;;6273467;22;19996;-63
2021/12/13 14:16:42;;;;;;;0.00;0.00;;;;;;;;;;6272977;22;20018;-63
2021/12/13 14:19:11;;;;;;;0.00;0.00;;;;;;;;;;6273397;22;20003;-64
2021/12/13 14:21:42;;;;;;;0.00;0.00;;;;;;;;;;6273205;22;20441;-64
2021/12/13 14:24:09;;;;;;;1.45;1.45;;;;;;;;;;6273085;22;20082;-62
2021/12/13 14:26:35;;;;;;;0.00;0.00;;;;;;;;;;6273145;22;20003;-63
2021/12/13 14:29:05;;;;;;;0.00;0.00;;;;;;;;;;6271871;22;19992;-63
2021/12/13 14:31:30;;;;;;;0.00;0.00;;;;;;;;;;6271272;22;20062;-62
2021/12/13 14:33:58;;;;;;;0.00;0.00;;;;;;;;;;6271695;22;19995;-63
2021/12/13 14:36:26;;;;;;;0.00;0.00;;;;;;;;;;6271598;22;20027;-66
2021/12/13 14:38:54;;;;;;;0.00;0.00;;;;;;;;;;6270655;22;20012;-62
2021/12/13 14:41:21;;;;;;;0.00;0.00;;;;;;;;;;6271473;22;20008;-63
2021/12/13 14:43:50;;;;;;;0.00;0.00;;;;;;;;;;6271339;22;20121;-63
2021/12/13 14:46:18;;;;;;;0.00;0.00;;;;;;;;;;6271633;22;20067;-63
2021/12/13 14:48:43;;;;;;;0.00;0.00;;;;;;;;;;6269244;22;20374;-63
2021/12/13 14:51:11;;;;;;;0.00;0.00;;;;;;;;;;6270238;22;20061;-63
2021/12/13 14:53:38;;;;;;;0.00;0.00;;;;;;;;;;6242597;22;20004;-61
2021/12/13 14:56:05;;;;;;;0.00;0.00;;;;;;;;;;6268963;22;20023;-63
2021/12/13 14:58:35;;;;;;;0.00;0.00;;;;;;;;;;6269798;22;20406;-63
2021/12/13 15:01:02;;;;;;;0.00;0.00;;;;;;;;;;6269354;22;20324;-63
2021/12/13 15:03:29;;;;;;;0.00;0.00;;;;;;;;;;6269187;22;19999;-63
2021/12/13 15:05:57;;;;;;;0.00;0.00;;;;;;;;;;6269770;22;20417;-63
2021/12/13 15:08:24;;;;;;;0.00;0.00;;;;;;;;;;6270227;22;20007;-63